Time;durP1;ratioP1;P1;durP2;ratioP2;P2;SDS_P1;SDS_P2;PMS_P1;PMS_P2;Temp;Humidity;BMP_temperature;BMP_pressure;BME280_temperature;BME280_humidity;BME280_pressure;Samples;Min_cycle;Max_cycle;Signal;HPM_P1;HPM_P2
2021/05/18 00:01:21;;;;;;;1.27;0.90;;;9.20;99.90;;;9.47;100.00;94678.00;2427641;56;26163;-66
2021/05/18 00:04:08;;;;;;;2.67;2.20;;;9.20;99.90;;;9.48;100.00;94672.00;2209924;56;26567;-65
2021/05/18 00:06:54;;;;;;;2.43;1.20;;;9.20;99.90;;;9.54;100.00;94673.00;2427345;56;26591;-65
2021/05/18 00:13:05;;;;;;;1.33;0.67;;;9.20;99.90;;;9.52;100.00;94673.00;2345856;59;26679;-66
2021/05/18 00:15:56;;;;;;;0.70;0.60;;;9.20;99.90;;;9.53;100.00;94685.00;2142412;59;26648;-66
2021/05/18 00:18:42;;;;;;;1.10;1.00;;;9.20;99.90;;;9.51;100.00;94679.00;2418692;57;26232;-65
2021/05/18 00:21:28;;;;;;;3.50;1.87;;;9.20;99.90;;;9.50;100.00;94688.00;2209987;57;26247;-65
2021/05/18 00:24:15;;;;;;;1.20;0.93;;;9.20;99.90;;;9.44;100.00;94692.00;2427954;57;26143;-65
2021/05/18 00:27:03;;;;;;;1.17;0.90;;;9.20;99.90;;;9.50;100.00;94685.00;2210032;57;26186;-66
2021/05/18 00:29:50;;;;;;;1.43;1.13;;;9.20;99.90;;;9.48;100.00;94695.00;2426627;57;26728;-66
2021/05/18 00:32:38;;;;;;;1.57;1.43;;;9.10;99.90;;;9.44;100.00;94693.00;2233151;57;26113;-65
2021/05/18 00:35:25;;;;;;;1.30;1.20;;;9.10;99.90;;;9.33;100.00;94692.00;2234843;57;26542;-66
2021/05/18 00:38:12;;;;;;;0.67;0.67;;;9.00;99.90;;;9.25;100.00;94697.00;2456750;56;26106;-66
2021/05/18 00:40:58;;;;;;;1.20;0.80;;;9.00;99.90;;;9.28;100.00;94696.00;2234179;57;26196;-66
2021/05/18 00:43:45;;;;;;;1.00;0.90;;;9.00;99.90;;;9.33;100.00;94703.00;2457656;56;26190;-65
2021/05/18 00:46:32;;;;;;;0.50;0.47;;;9.00;99.90;;;9.22;100.00;94702.00;2234393;57;26582;-65
2021/05/18 00:49:19;;;;;;;1.23;0.90;;;9.00;99.90;;;9.30;100.00;94700.00;2457071;56;26196;-65
2021/05/18 00:52:06;;;;;;;0.83;0.83;;;8.90;99.90;;;9.20;100.00;94712.00;2234947;57;26106;-65
2021/05/18 00:54:57;;;;;;;1.30;0.50;;;9.00;99.90;;;9.31;100.00;94697.00;2457251;56;26177;-65
2021/05/18 01:00:47;;;;;;;2.63;0.60;;;8.90;99.90;;;9.14;100.00;94707.00;2234665;57;26193;-65
2021/05/18 01:03:36;;;;;;;1.30;1.20;;;8.80;99.90;;;9.05;100.00;94711.00;2457672;56;26713;-65
2021/05/18 01:06:28;;;;;;;0.60;0.50;;;8.70;99.90;;;8.98;100.00;94714.00;2234660;57;26141;-65
2021/05/18 01:09:15;;;;;;;1.23;1.00;;;8.70;99.90;;;9.03;100.00;94719.00;2457610;56;26110;-65
2021/05/18 01:12:02;;;;;;;0.50;0.50;;;8.70;99.90;;;8.99;100.00;94710.00;2234798;57;26540;-65
2021/05/18 01:14:48;;;;;;;0.90;0.60;;;8.70;99.90;;;8.99;100.00;94719.00;2457368;56;26622;-66
2021/05/18 01:17:35;;;;;;;1.67;1.20;;;8.70;99.90;;;8.94;100.00;94726.00;2234714;57;26188;-65
2021/05/18 01:20:22;;;;;;;2.73;1.73;;;8.70;99.90;;;9.03;100.00;94716.00;2457746;56;26645;-65
2021/05/18 01:23:09;;;;;;;1.23;1.13;;;8.70;99.90;;;9.04;100.00;94721.00;2234871;57;26623;-65
2021/05/18 01:25:56;;;;;;;2.43;1.17;;;8.80;99.90;;;8.98;100.00;94712.00;2457536;56;26145;-65
2021/05/18 01:28:42;;;;;;;0.60;0.60;;;8.80;99.90;;;9.12;100.00;94718.00;2234872;57;26114;-65
2021/05/18 01:31:30;;;;;;;0.83;0.60;;;8.70;99.90;;;8.94;100.00;94721.00;2456997;56;26132;-65
2021/05/18 01:34:17;;;;;;;0.87;0.43;;;8.80;99.90;;;9.06;100.00;94719.00;2234233;57;26188;-66
2021/05/18 01:37:04;;;;;;;0.50;0.30;;;8.70;99.90;;;8.97;100.00;94713.00;2235209;57;26129;-65
2021/05/18 01:40:00;;;;;;;0.60;0.30;;;8.80;99.90;;;9.03;100.00;94722.00;2457318;56;26527;-65
2021/05/18 01:42:47;;;;;;;0.70;0.30;;;8.70;99.90;;;9.05;100.00;94722.00;2457252;56;26626;-65
2021/05/18 01:45:34;;;;;;;0.27;0.20;;;8.70;99.90;;;9.00;100.00;94730.00;2235292;57;26565;-65
2021/05/18 01:48:21;;;;;;;0.97;0.40;;;8.80;99.90;;;9.06;100.00;94734.00;2233846;57;26149;-65
2021/05/18 01:51:08;;;;;;;0.73;0.30;;;8.80;99.90;;;9.11;100.00;94723.00;2233934;57;26222;-65
2021/05/18 01:53:55;;;;;;;0.90;0.37;;;8.90;99.90;;;9.19;100.00;94729.00;2234665;57;26089;-66
2021/05/18 01:56:50;;;;;;;0.30;0.30;;;8.90;99.90;;;9.20;100.00;94731.00;2457673;56;26101;-66
2021/05/18 01:59:36;;;;;;;1.03;0.33;;;8.80;99.90;;;9.01;100.00;94727.00;2457751;56;26563;-65
2021/05/18 02:02:23;;;;;;;1.13;0.40;;;8.80;99.90;;;9.04;100.00;94736.00;2234406;57;26114;-66
2021/05/18 02:05:16;;;;;;;0.40;0.30;;;8.80;99.90;;;9.08;100.00;94735.00;2234647;57;26113;-65
2021/05/18 02:08:05;;;;;;;0.30;0.30;;;8.90;99.90;;;9.13;100.00;94746.00;2234718;57;26225;-66
2021/05/18 02:10:52;;;;;;;1.30;0.30;;;8.90;99.90;;;9.12;100.00;94751.00;2457521;56;26265;-65
2021/05/18 02:13:44;;;;;;;0.53;0.50;;;8.90;99.90;;;9.21;100.00;94735.00;2234567;57;26238;-65
2021/05/18 02:16:35;;;;;;;0.30;0.30;;;8.90;99.90;;;9.20;100.00;94747.00;2456824;56;26369;-65
2021/05/18 02:19:32;;;;;;;0.27;0.20;;;8.80;99.90;;;9.07;100.00;94747.00;2457191;56;26193;-65
2021/05/18 02:24:37;;;;;;;0.80;0.80;;;8.80;99.90;;;9.04;100.00;94749.00;2457711;56;26530;-65
2021/05/18 02:27:23;;;;;;;1.33;0.70;;;8.80;99.90;;;9.06;100.00;94750.00;2235098;57;26165;-66
2021/05/18 02:30:13;;;;;;;0.53;0.30;;;8.70;99.90;;;9.03;100.00;94750.00;2457389;56;26621;-65
2021/05/18 02:33:01;;;;;;;2.93;1.73;;;8.80;99.90;;;9.08;100.00;94758.00;2234052;57;26189;-65
2021/05/18 02:35:47;;;;;;;0.70;0.60;;;8.80;99.90;;;9.06;100.00;94755.00;2234560;57;26741;-65
2021/05/18 02:38:34;;;;;;;1.10;0.90;;;8.80;99.90;;;9.03;100.00;94756.00;2233545;57;26145;-65
2021/05/18 02:41:21;;;;;;;0.50;0.50;;;8.70;99.90;;;9.07;100.00;94761.00;2233490;57;26164;-65
2021/05/18 02:44:12;;;;;;;0.30;0.27;;;8.70;99.90;;;9.06;100.00;94763.00;2234003;57;26252;-66
2021/05/18 02:50:06;;;;;;;1.33;1.00;;;8.70;99.90;;;9.06;100.00;94763.00;2232484;57;26213;-65
2021/05/18 02:52:52;;;;;;;1.20;0.50;;;8.70;99.90;;;8.92;100.00;94762.00;2457449;56;26166;-65
2021/05/18 02:55:49;;;;;;;2.37;1.80;;;8.70;99.90;;;9.02;100.00;94765.00;2234692;57;26657;-66
2021/05/18 02:58:37;;;;;;;2.60;1.50;;;8.70;99.90;;;8.97;100.00;94770.00;2234223;57;26688;-65
2021/05/18 03:01:24;;;;;;;0.37;0.37;;;8.70;99.90;;;9.00;100.00;94762.00;2234236;57;26124;-65
2021/05/18 03:04:11;;;;;;;1.60;0.80;;;8.70;99.90;;;9.05;100.00;94758.00;2210181;57;26223;-65
2021/05/18 03:06:57;;;;;;;0.70;0.70;;;8.60;99.90;;;8.89;100.00;94755.00;2209939;57;26179;-65
2021/05/18 03:09:44;;;;;;;2.47;0.53;;;8.60;99.90;;;8.92;100.00;94770.00;2427725;57;26478;-65
2021/05/18 03:12:31;;;;;;;1.07;0.70;;;8.60;99.90;;;8.86;100.00;94767.00;2210231;57;26238;-65
2021/05/18 03:15:18;;;;;;;2.70;1.30;;;8.60;99.90;;;8.84;100.00;94767.00;2428013;57;26153;-65
2021/05/18 03:18:05;;;;;;;1.13;0.60;;;8.60;99.90;;;8.86;100.00;94765.00;2209567;57;26645;-66
2021/05/18 03:20:51;;;;;;;1.57;0.80;;;8.50;99.90;;;8.83;100.00;94768.00;2427676;57;26700;-66
2021/05/18 03:23:37;;;;;;;0.50;0.40;;;8.50;99.90;;;8.82;100.00;94767.00;2210433;57;26166;-66
2021/05/18 03:26:25;;;;;;;1.60;0.57;;;8.50;99.90;;;8.80;100.00;94769.00;2427710;57;26429;-65
2021/05/18 03:29:14;;;;;;;0.67;0.53;;;8.40;99.90;;;8.70;100.00;94766.00;2210277;58;26238;-65
2021/05/18 03:35:09;;;;;;;3.57;1.20;;;8.40;99.90;;;8.65;100.00;94765.00;2209889;57;26221;-66
2021/05/18 03:37:57;;;;;;;1.10;1.00;;;8.40;99.90;;;8.77;100.00;94761.00;2210070;58;26253;-66
2021/05/18 03:40:49;;;;;;;1.60;1.40;;;8.50;99.90;;;8.87;100.00;94766.00;2210396;58;26633;-66
2021/05/18 03:43:49;;;;;;;0.97;0.80;;;8.50;99.90;;;8.83;100.00;94765.00;2210479;57;26876;-66
2021/05/18 03:52:52;;;;;;;0.70;0.70;;;8.50;99.90;;;8.80;100.00;94771.00;2428430;56;26096;-66
2021/05/18 03:58:59;;;;;;;0.87;0.87;;;8.50;99.90;;;8.82;100.00;94769.00;2173946;57;26108;-65
2021/05/18 04:04:54;;;;;;;0.53;0.53;;;8.50;99.90;;;8.81;100.00;94770.00;2210000;57;26121;-65
2021/05/18 04:11:05;;;;;;;0.33;0.33;;;8.50;99.90;;;8.79;100.00;94777.00;2428338;56;26161;-65
2021/05/18 04:16:57;;;;;;;0.27;0.20;;;8.60;99.90;;;8.97;100.00;94778.00;2427463;56;26188;-65
2021/05/18 04:19:49;;;;;;;2.10;0.40;;;8.70;99.90;;;9.08;100.00;94780.00;2210203;57;26135;-65
2021/05/18 04:22:49;;;;;;;1.60;1.03;;;8.70;99.90;;;9.00;100.00;94782.00;2428435;56;26162;-65
2021/05/18 04:25:54;;;;;;;0.20;0.17;;;8.60;99.90;;;8.97;100.00;94788.00;2209560;57;26080;-66
2021/05/18 04:50:56;;;;;;;0.30;0.30;;;8.70;99.90;;;9.06;100.00;94807.00;2426555;57;26680;-65
2021/05/18 04:54:11;;;;;;;0.20;0.20;;;8.70;99.90;;;9.12;100.00;94809.00;2426149;57;26634;-66
2021/05/18 05:00:06;;;;;;;0.30;0.20;;;8.80;99.90;;;9.20;100.00;94810.00;2209693;58;26151;-65
2021/05/18 05:06:22;;;;;;;0.27;0.20;;;8.90;99.90;;;9.30;100.00;94804.00;2374628;58;26266;-65
2021/05/18 05:09:18;;;;;;;1.50;0.30;;;8.90;99.90;;;9.27;100.00;94808.00;2428399;57;26119;-66
2021/05/18 05:12:32;;;;;;;0.30;0.30;;;9.00;99.90;;;9.45;100.00;94810.00;2210492;58;26668;-65
2021/05/18 05:15:19;;;;;;;0.77;0.30;;;9.00;99.90;;;9.35;100.00;94818.00;2428444;57;26227;-65
2021/05/18 05:18:05;;;;;;;0.77;0.30;;;9.00;99.90;;;9.37;100.00;94824.00;2210031;56;26158;-65
2021/05/18 05:20:51;;;;;;;0.10;0.10;;;9.00;99.90;;;9.38;100.00;94823.00;2210513;56;26126;-65
2021/05/18 05:23:38;;;;;;;1.07;0.43;;;9.00;99.90;;;9.35;100.00;94832.00;2428329;56;26178;-66
2021/05/18 05:26:24;;;;;;;0.50;0.27;;;9.00;99.90;;;9.44;100.00;94832.00;2210833;56;26187;-66
2021/05/18 05:29:10;;;;;;;0.40;0.30;;;9.10;99.90;;;9.50;100.00;94822.00;2428149;56;26226;-62
2021/05/18 05:31:57;;;;;;;0.67;0.60;;;9.00;99.90;;;9.29;100.00;94824.00;2209586;57;26699;-63
2021/05/18 05:34:43;;;;;;;0.20;0.20;;;9.00;99.90;;;9.37;100.00;94831.00;2209053;57;26182;-62
2021/05/18 05:37:30;;;;;;;1.50;1.30;;;9.00;99.90;;;9.37;100.00;94839.00;2209360;58;26311;-62
2021/05/18 05:40:18;;;;;;;0.13;0.13;;;8.90;99.90;;;9.29;100.00;94842.00;2209648;58;26653;-62
2021/05/18 05:43:04;;;;;;;0.40;0.40;;;9.00;99.90;;;9.37;100.00;94843.00;2428181;57;26115;-63
2021/05/18 05:45:51;;;;;;;0.13;0.13;;;9.10;99.90;;;9.40;100.00;94842.00;2210207;57;26240;-63
2021/05/18 05:48:37;;;;;;;0.33;0.27;;;9.10;99.90;;;9.48;100.00;94849.00;2428029;57;26166;-63
2021/05/18 05:51:26;;;;;;;0.60;0.60;;;9.10;99.90;;;9.48;100.00;94858.00;2210615;57;26106;-62
2021/05/18 05:54:12;;;;;;;0.40;0.40;;;9.10;99.90;;;9.46;100.00;94860.00;2428142;57;26231;-62
2021/05/18 05:56:59;;;;;;;3.40;1.63;;;9.10;99.90;;;9.50;100.00;94866.00;2210527;57;26163;-62
2021/05/18 05:59:45;;;;;;;1.30;1.20;;;9.20;99.90;;;9.51;100.00;94863.00;2427821;57;26557;-62
2021/05/18 06:02:32;;;;;;;1.73;1.50;;;9.10;99.90;;;9.57;100.00;94865.00;2209983;57;26158;-62
2021/05/18 06:05:18;;;;;;;2.87;2.03;;;9.30;99.90;;;9.88;100.00;94869.00;2428117;57;26684;-62
2021/05/18 06:08:05;;;;;;;1.50;1.13;;;9.40;99.90;;;10.09;100.00;94870.00;2210454;57;26812;-63
2021/05/18 06:10:56;;;;;;;7.43;5.20;;;9.50;99.90;;;9.92;100.00;94874.00;2210445;57;26727;-62
2021/05/18 06:13:57;;;;;;;4.13;2.40;;;9.30;99.90;;;9.68;100.00;94887.00;2210328;57;26561;-62
2021/05/18 06:35:43;;;;;;;0.20;0.20;;;9.80;99.90;;;10.55;100.00;94887.00;2209224;57;26423;-63
2021/05/18 06:47:48;;;;;;;9.20;4.77;;;9.60;99.90;;;10.09;100.00;94906.00;2425275;57;26136;-63
2021/05/18 06:50:34;;;;;;;1.23;1.13;;;9.50;99.90;;;9.92;100.00;94905.00;2207829;58;26639;-63
2021/05/18 06:53:21;;;;;;;1.77;1.27;;;9.40;99.90;;;9.82;100.00;94913.00;2207875;58;26340;-62
2021/05/18 06:56:07;;;;;;;0.50;0.50;;;9.40;99.90;;;9.82;100.00;94917.00;2207836;58;26458;-63
2021/05/18 07:02:00;;;;;;;0.20;0.20;;;9.50;99.90;;;9.91;100.00;94921.00;2207367;58;26208;-63
2021/05/18 07:04:47;;;;;;;0.20;0.20;;;9.20;99.90;;;9.60;100.00;94913.00;2208932;58;26589;-63
2021/05/18 07:07:34;;;;;;;0.20;0.20;;;9.20;99.90;;;9.54;100.00;94918.00;2426781;57;26779;-63
2021/05/18 07:10:20;;;;;;;0.63;0.50;;;9.20;99.90;;;9.71;100.00;94913.00;2210490;57;26166;-63
2021/05/18 07:13:07;;;;;;;0.40;0.27;;;9.40;99.90;;;9.82;100.00;94907.00;2210423;57;26198;-63
2021/05/18 07:15:53;;;;;;;0.80;0.57;;;9.20;99.90;;;9.63;100.00;94915.00;2427978;57;26901;-63
2021/05/18 07:18:40;;;;;;;1.17;0.20;;;9.30;99.90;;;9.85;100.00;94912.00;2210325;57;26154;-63
2021/05/18 07:21:26;;;;;;;0.30;0.30;;;9.30;99.90;;;9.82;100.00;94917.00;2427768;57;26111;-63
2021/05/18 07:24:18;;;;;;;0.40;0.40;;;9.30;99.90;;;9.77;100.00;94926.00;2210688;57;27106;-63
2021/05/18 07:27:05;;;;;;;0.90;0.50;;;9.10;99.90;;;9.46;100.00;94920.00;2427551;57;26283;-63
2021/05/18 07:29:51;;;;;;;1.07;0.50;;;9.00;99.90;;;9.38;100.00;94928.00;2210417;57;26202;-62
2021/05/18 07:32:39;;;;;;;0.30;0.30;;;9.10;99.90;;;9.48;100.00;94921.00;2427598;57;26253;-63
2021/05/18 07:35:25;;;;;;;0.90;0.50;;;9.00;99.90;;;9.37;100.00;94913.00;2210692;57;26118;-63
2021/05/18 07:38:12;;;;;;;0.73;0.50;;;9.00;99.90;;;9.56;100.00;94928.00;2210014;57;26649;-63
2021/05/18 07:40:58;;;;;;;0.83;0.60;;;9.30;99.90;;;9.85;100.00;94931.00;2427085;57;26639;-63
2021/05/18 07:43:45;;;;;;;1.03;0.47;;;9.10;99.90;;;9.66;100.00;94936.00;2209906;57;26638;-63
2021/05/18 07:46:32;;;;;;;0.40;0.40;;;9.10;99.90;;;9.66;100.00;94930.00;2427726;57;26219;-62
2021/05/18 07:49:26;;;;;;;0.70;0.40;;;9.10;99.90;;;9.57;100.00;94936.00;2209669;57;26187;-63
2021/05/18 08:07:38;;;;;;;1.83;0.67;;;9.30;99.90;;;9.79;100.00;94942.00;2425815;57;26152;-63
2021/05/18 08:10:32;;;;;;;0.50;0.50;;;9.30;99.90;;;9.86;100.00;94934.00;2208539;58;26194;-62
2021/05/18 08:13:22;;;;;;;2.10;0.40;;;9.40;99.90;;;10.01;100.00;94935.00;2234416;57;26089;-63
2021/05/18 08:19:42;;;;;;;0.97;0.67;;;9.80;99.90;;;10.64;100.00;94932.00;2456780;56;26183;-63
2021/05/18 08:48:03;;;;;;;0.80;0.60;;;10.00;99.90;;;10.65;100.00;94935.00;2456964;56;27489;-63
2021/05/18 09:42:10;;;;;;;0.30;0.30;;;12.10;99.90;;;13.11;100.00;94895.00;2234934;57;26095;-63
2021/05/18 10:23:18;;;;;;;1.83;1.02;;;15.60;99.90;;;16.47;100.00;94845.00;2458197;56;26162;-63
2021/05/18 10:35:48;;;;;;;1.25;0.52;;;14.40;99.90;;;16.10;100.00;94828.00;2457642;56;26121;-63
2021/05/18 10:38:40;;;;;;;0.40;0.40;;;14.90;99.90;;;16.20;100.00;94833.00;2458085;56;26177;-63
2021/05/18 10:41:28;;;;;;;0.55;0.55;;;15.00;99.90;;;16.67;100.00;94837.00;2235313;57;26483;-63
2021/05/18 10:44:15;;;;;;;0.55;0.40;;;14.70;99.90;;;16.48;100.00;94846.00;2457740;56;26105;-63
2021/05/18 10:47:02;;;;;;;1.35;0.50;;;13.90;99.90;;;15.12;100.00;94856.00;2235211;57;26137;-63
2021/05/18 10:49:55;;;;;;;0.40;0.32;;;13.20;99.90;;;14.29;100.00;94846.00;2457154;56;26106;-63
2021/05/18 10:52:41;;;;;;;0.40;0.40;;;12.80;99.90;;;14.07;100.00;94841.00;2235315;57;26104;-63
2021/05/18 10:55:28;;;;;;;0.77;0.50;;;12.20;99.90;;;13.12;100.00;94842.00;2453735;56;26240;-63
2021/05/18 10:58:27;;;;;;;1.08;0.50;;;12.00;99.90;;;12.74;100.00;94846.00;2233992;57;26151;-63
2021/05/18 11:01:13;;;;;;;2.27;0.50;;;12.10;99.90;;;13.06;100.00;94847.00;2457178;56;26222;-63
2021/05/18 11:04:00;;;;;;;1.07;0.50;;;11.80;99.90;;;12.51;100.00;94922.00;2232817;57;26567;-63
2021/05/18 11:06:54;;;;;;;1.47;0.60;;;9.90;99.90;;;9.98;100.00;94947.00;2457364;56;26090;-63
2021/05/18 11:09:41;;;;;;;1.07;0.60;;;9.00;99.90;;;9.23;100.00;94948.00;2234282;57;26105;-63
2021/05/18 11:12:28;;;;;;;0.60;0.27;;;8.40;99.90;;;8.70;100.00;94959.00;2457535;56;26098;-63
2021/05/18 11:15:16;;;;;;;0.67;0.40;;;8.10;99.90;;;8.39;100.00;94967.00;2234375;57;26093;-63
2021/05/18 11:18:03;;;;;;;0.30;0.30;;;8.00;99.90;;;8.25;100.00;94980.00;2233896;57;26909;-64
2021/05/18 11:20:58;;;;;;;1.10;0.60;;;8.00;99.90;;;8.39;100.00;94974.00;2457244;56;26149;-63
2021/05/18 11:23:44;;;;;;;1.13;0.50;;;8.10;99.90;;;8.61;100.00;94973.00;2457276;56;26161;-63
2021/05/18 11:26:31;;;;;;;1.37;0.40;;;8.10;99.90;;;8.47;100.00;94966.00;2235079;57;26548;-63
2021/05/18 11:29:41;;;;;;;1.27;0.60;;;8.20;99.90;;;8.62;100.00;94956.00;2235075;57;26198;-63
2021/05/18 11:32:27;;;;;;;1.13;0.47;;;8.20;99.90;;;8.91;100.00;94953.00;2457319;56;26646;-64
2021/05/18 11:35:15;;;;;;;0.67;0.50;;;8.90;99.90;;;9.90;100.00;94951.00;2233636;57;26715;-63
2021/05/18 11:38:13;;;;;;;0.90;0.40;;;10.10;99.90;;;11.41;100.00;94923.00;2234484;57;26613;-63
2021/05/18 11:41:00;;;;;;;0.63;0.50;;;11.80;99.90;;;13.07;100.00;94904.00;2234321;57;26140;-63
2021/05/18 11:43:51;;;;;;;0.10;0.10;;;11.90;99.90;;;13.87;100.00;94892.00;2457437;56;26108;-64
2021/05/18 11:46:44;;;;;;;0.35;0.35;;;13.00;99.90;;;15.55;100.00;94887.00;2234607;57;26110;-64
2021/05/18 11:49:30;;;;;;;0.30;0.15;;;13.50;99.90;;;15.07;100.00;94889.00;2234201;57;26109;-63
2021/05/18 11:52:17;;;;;;;1.58;0.30;;;12.90;99.90;;;14.74;100.00;94883.00;2234764;57;26594;-63
2021/05/18 11:55:28;;;;;;;1.25;0.20;;;13.80;99.90;;;16.23;100.00;94878.00;2456599;56;26113;-63
2021/05/18 11:58:17;;;;;;;1.50;0.73;;;13.20;99.90;;;14.84;100.00;94884.00;2234460;57;26190;-63
2021/05/18 12:01:09;;;;;;;0.30;0.30;;;12.50;99.90;;;14.09;100.00;94878.00;2234526;57;26582;-63
2021/05/18 12:04:08;;;;;;;0.47;0.35;;;12.20;99.90;;;13.76;100.00;94879.00;2233643;57;26108;-63
2021/05/18 12:06:56;;;;;;;1.95;0.40;;;12.40;99.90;;;13.79;100.00;94878.00;2456741;56;26655;-63
2021/05/18 12:09:46;;;;;;;0.35;0.30;;;12.20;99.90;;;13.50;100.00;94876.00;2234348;57;26110;-63
2021/05/18 12:12:38;;;;;;;0.60;0.60;;;12.20;99.90;;;13.70;100.00;94877.00;2457710;56;26264;-63
2021/05/18 12:15:24;;;;;;;0.43;0.43;;;12.60;99.90;;;13.86;100.00;94889.00;2234445;57;26136;-63
2021/05/18 12:18:10;;;;;;;0.45;0.43;;;13.40;99.90;;;15.20;100.00;94886.00;2456706;56;26283;-63
2021/05/18 12:21:06;;;;;;;0.55;0.30;;;13.80;99.90;;;15.10;100.00;94876.00;2234376;57;26156;-63
2021/05/18 12:24:09;;;;;;;1.00;0.80;;;14.30;99.90;;;15.85;100.00;94878.00;2234058;57;26242;-63
2021/05/18 12:26:59;;;;;;;1.10;0.80;;;14.80;99.90;;;17.09;100.00;94873.00;2457480;56;26562;-63
2021/05/18 12:29:51;;;;;;;0.70;0.65;;;14.30;99.90;;;15.61;100.00;94878.00;2233713;57;26614;-63
2021/05/18 12:32:48;;;;;;;0.32;0.32;;;13.80;99.90;;;15.51;100.00;94871.00;2234498;57;26113;-63
2021/05/18 12:35:35;;;;;;;1.92;0.60;;;13.70;99.90;;;14.26;100.00;94877.00;2457421;56;26100;-64
2021/05/18 12:38:21;;;;;;;1.10;0.50;;;13.40;99.90;;;14.33;100.00;94881.00;2233583;57;26185;-63
2021/05/18 12:41:08;;;;;;;0.65;0.52;;;13.60;99.90;;;14.62;100.00;94870.00;2233502;57;26225;-63
2021/05/18 12:44:04;;;;;;;0.50;0.50;;;13.60;99.90;;;15.01;100.00;94878.00;2232405;57;26115;-63
2021/05/18 12:47:02;;;;;;;1.45;0.70;;;13.40;99.90;;;14.65;100.00;94861.00;2234056;57;26109;-63
2021/05/18 12:49:51;;;;;;;0.30;0.30;;;14.30;99.90;;;15.65;100.00;94858.00;2456501;56;26160;-64
2021/05/18 12:52:40;;;;;;;1.10;0.50;;;14.30;99.90;;;15.43;100.00;94860.00;2234541;57;26105;-63
2021/05/18 12:55:28;;;;;;;0.50;0.47;;;13.80;99.90;;;14.95;100.00;94849.00;2457253;56;26536;-63
2021/05/18 12:58:27;;;;;;;0.70;0.50;;;13.10;99.90;;;13.63;100.00;94857.00;2234854;57;26148;-63
2021/05/18 13:01:16;;;;;;;0.60;0.50;;;13.10;99.90;;;14.15;100.00;94852.00;2457448;56;26176;-63
2021/05/18 13:04:11;;;;;;;0.40;0.40;;;13.00;99.90;;;13.81;100.00;94848.00;2234092;57;26148;-63
2021/05/18 13:06:57;;;;;;;1.37;0.52;;;13.60;99.90;;;14.71;100.00;94841.00;2233882;57;26828;-63
2021/05/18 13:09:44;;;;;;;1.17;0.50;;;13.90;99.90;;;14.92;100.00;94834.00;2233263;57;26184;-63
2021/05/18 13:12:30;;;;;;;0.67;0.43;;;13.70;99.90;;;14.56;100.00;94824.00;2235106;57;26113;-64
2021/05/18 13:15:22;;;;;;;0.50;0.50;;;14.00;99.90;;;15.12;100.00;94824.00;2235066;57;26161;-63
2021/05/18 13:18:10;;;;;;;0.88;0.62;;;14.00;99.90;;;14.88;100.00;94819.00;2457657;56;26543;-63
2021/05/18 13:20:56;;;;;;;2.00;0.80;;;14.30;99.90;;;15.29;100.00;94814.00;2234697;57;26218;-63
2021/05/18 13:23:55;;;;;;;0.37;0.35;;;14.50;99.90;;;15.41;100.00;94814.00;2457304;56;26269;-63
2021/05/18 13:26:42;;;;;;;1.80;0.43;;;14.50;99.90;;;15.50;100.00;94805.00;2457129;56;26094;-63
2021/05/18 13:29:28;;;;;;;2.37;0.90;;;13.80;99.90;;;14.32;100.00;94805.00;2234855;57;26618;-63
2021/05/18 13:32:14;;;;;;;0.55;0.50;;;13.40;99.90;;;14.35;100.00;94797.00;2458215;56;26578;-63
2021/05/18 13:35:05;;;;;;;1.00;0.52;;;13.70;99.90;;;14.63;100.00;94787.00;2456834;56;26701;-63
2021/05/18 13:37:51;;;;;;;1.62;0.62;;;14.30;99.90;;;15.60;100.00;94788.00;2457969;56;26654;-63
2021/05/18 13:40:38;;;;;;;1.87;0.77;;;14.30;99.90;;;15.28;100.00;94780.00;2233986;57;26141;-63
2021/05/18 13:43:25;;;;;;;1.20;0.60;;;14.70;99.90;;;15.66;100.00;94783.00;2234700;57;26185;-64
2021/05/18 13:46:11;;;;;;;3.67;0.85;;;14.10;99.90;;;14.75;100.00;94779.00;2457732;56;26519;-63
2021/05/18 13:48:58;;;;;;;7.30;4.00;;;13.90;99.90;;;14.58;100.00;94779.00;2234153;57;26105;-63
2021/05/18 13:51:45;;;;;;;1.60;1.30;;;13.90;99.90;;;14.44;100.00;94772.00;2456756;56;26755;-63
2021/05/18 13:54:32;;;;;;;0.97;0.43;;;13.50;99.90;;;13.99;100.00;94774.00;2234863;57;26158;-63
2021/05/18 13:57:18;;;;;;;1.00;0.80;;;13.00;99.90;;;13.43;100.00;94771.00;2458033;56;26556;-63
2021/05/18 14:00:13;;;;;;;0.63;0.37;;;13.50;99.90;;;14.30;100.00;94775.00;2234540;57;26503;-63
2021/05/18 14:02:59;;;;;;;0.80;0.50;;;13.70;99.90;;;14.36;100.00;94775.00;2457543;56;26570;-63
2021/05/18 14:05:45;;;;;;;1.07;0.50;;;13.30;99.90;;;13.76;100.00;94768.00;2235051;57;26567;-63
2021/05/18 14:08:33;;;;;;;1.00;0.47;;;13.60;99.90;;;14.27;100.00;94763.00;2457417;56;26509;-63
2021/05/18 14:11:22;;;;;;;0.47;0.47;;;13.40;99.90;;;14.00;100.00;94757.00;2235395;57;26113;-63
2021/05/18 14:14:08;;;;;;;1.20;0.90;;;13.40;99.90;;;14.10;100.00;94751.00;2457235;56;26605;-63
2021/05/18 14:16:54;;;;;;;1.80;0.63;;;13.50;99.90;;;13.85;100.00;94754.00;2457602;56;26792;-63
2021/05/18 14:19:41;;;;;;;2.77;0.80;;;13.10;99.90;;;13.58;100.00;94765.00;2233687;57;26122;-63
2021/05/18 14:22:27;;;;;;;2.00;0.87;;;13.00;99.90;;;13.61;100.00;94764.00;2457955;56;26110;-63
2021/05/18 14:25:14;;;;;;;4.77;3.17;;;13.30;99.90;;;13.99;100.00;94766.00;2234436;57;26545;-63
2021/05/18 14:28:01;;;;;;;3.35;2.62;;;13.80;99.90;;;14.81;100.00;94773.00;2457913;56;26589;-63
2021/05/18 14:30:47;;;;;;;1.55;1.12;;;14.40;99.90;;;15.43;100.00;94764.00;2234957;57;26121;-63
2021/05/18 14:33:34;;;;;;;2.12;1.20;;;14.10;99.90;;;14.97;100.00;94768.00;2457192;56;26631;-63
2021/05/18 14:36:21;;;;;;;0.75;0.52;;;14.30;99.90;;;15.31;100.00;94759.00;2235366;57;26560;-62
2021/05/18 14:39:10;;;;;;;0.98;0.68;;;14.30;99.90;;;15.13;100.00;94761.00;2234683;57;26105;-63
2021/05/18 14:45:02;;;;;;;1.62;1.35;;;14.50;99.90;;;15.39;100.00;94758.00;2457624;56;26508;-62
2021/05/18 14:47:55;;;;;;;1.12;0.50;;;14.30;99.90;;;14.99;100.00;94750.00;2234571;57;26108;-62
2021/05/18 14:53:59;;;;;;;1.35;0.50;;;14.10;99.90;;;14.81;100.00;94741.00;2457283;56;26117;-63
2021/05/18 14:56:46;;;;;;;2.55;0.98;;;14.20;99.90;;;14.82;100.00;94752.00;2457819;56;26591;-62
2021/05/18 14:59:32;;;;;;;1.73;1.00;;;14.00;99.90;;;14.50;100.00;94742.00;2235328;57;26084;-62
2021/05/18 15:02:19;;;;;;;0.30;0.30;;;14.30;99.90;;;15.03;100.00;94735.00;2457730;56;26111;-63
2021/05/18 15:05:09;;;;;;;0.60;0.50;;;14.40;99.90;;;15.18;100.00;94726.00;2234528;57;26103;-63
2021/05/18 15:07:56;;;;;;;0.30;0.30;;;14.50;99.90;;;15.14;100.00;94731.00;2457101;56;26519;-63
2021/05/18 15:10:44;;;;;;;2.35;1.20;;;14.30;99.90;;;14.92;100.00;94733.00;2234680;57;27238;-62
2021/05/18 15:13:33;;;;;;;1.33;0.82;;;14.60;99.90;;;15.54;100.00;94729.00;2234883;57;26254;-62
2021/05/18 15:16:19;;;;;;;1.15;0.60;;;14.20;99.90;;;14.68;100.00;94725.00;2235248;57;26093;-63
2021/05/18 15:19:08;;;;;;;0.85;0.50;;;14.20;99.90;;;14.58;100.00;94720.00;2234525;57;26154;-62
2021/05/18 15:21:55;;;;;;;1.95;0.70;;;13.70;99.90;;;14.02;100.00;94710.00;2457755;56;26109;-63
2021/05/18 15:24:42;;;;;;;1.05;0.60;;;13.60;99.90;;;14.28;100.00;94714.00;2233816;57;26176;-62
2021/05/18 15:27:28;;;;;;;1.67;0.50;;;13.70;99.90;;;14.34;100.00;94711.00;2457785;56;26314;-63
2021/05/18 15:30:17;;;;;;;2.40;0.52;;;14.30;99.90;;;15.30;100.00;94714.00;2234984;57;26141;-63
2021/05/18 15:33:03;;;;;;;0.82;0.40;;;14.50;99.90;;;15.10;100.00;94710.00;2457430;56;26572;-62
2021/05/18 15:35:49;;;;;;;0.65;0.45;;;14.20;99.90;;;15.05;100.00;94707.00;2234595;57;26166;-63
2021/05/18 15:38:38;;;;;;;0.55;0.47;;;13.90;99.90;;;14.50;100.00;94705.00;2457738;56;26164;-63
2021/05/18 15:41:24;;;;;;;1.27;0.55;;;13.90;99.90;;;14.66;100.00;94710.00;2235192;57;26638;-62
2021/05/18 15:44:11;;;;;;;0.40;0.40;;;13.60;99.90;;;14.20;100.00;94706.00;2457467;56;26711;-62
2021/05/18 15:46:58;;;;;;;0.47;0.47;;;13.30;99.90;;;14.01;100.00;94706.00;2235213;57;26188;-62
2021/05/18 15:49:44;;;;;;;1.85;0.70;;;13.20;99.90;;;13.80;100.00;94714.00;2457120;56;26198;-63
2021/05/18 15:52:30;;;;;;;2.00;0.80;;;13.40;99.90;;;14.23;100.00;94719.00;2235224;57;26080;-63
2021/05/18 15:55:17;;;;;;;0.77;0.62;;;13.30;99.90;;;14.00;100.00;94712.00;2234738;57;26129;-63